createdAt,value
2023-01-03T00:02:19.102Z,22.13
2023-01-03T00:04:49.772Z,21.83
2023-01-03T00:07:34.395Z,22.73
2023-01-03T00:10:05.017Z,21.08
2023-01-03T00:12:34.084Z,22.08
2023-01-03T00:15:02.420Z,21.23
2023-01-03T00:17:30.674Z,22.48
2023-01-03T00:19:58.861Z,21.00
2023-01-03T00:22:27.351Z,23.23
2023-01-03T00:24:55.970Z,20.50
2023-01-03T00:27:23.895Z,22.92
2023-01-03T00:29:52.064Z,21.10
2023-01-03T00:32:20.656Z,22.00
2023-01-03T00:34:48.930Z,21.05
2023-01-03T00:37:16.998Z,22.00
2023-01-03T00:39:45.010Z,21.38
2023-01-03T00:42:13.423Z,19.42
2023-01-03T00:44:41.738Z,20.40
2023-01-03T00:47:10.381Z,20.08
2023-01-03T00:49:39.465Z,22.13
2023-01-03T00:52:07.895Z,20.75
2023-01-03T00:54:37.166Z,21.50
2023-01-03T00:57:05.054Z,21.23
2023-01-03T00:59:33.120Z,21.88
2023-01-03T01:02:01.232Z,21.95
2023-01-03T01:04:31.880Z,22.73
2023-01-03T01:07:03.670Z,23.38
2023-01-03T01:12:07.668Z,21.75
2023-01-03T01:14:36.386Z,22.17
2023-01-03T01:17:08.909Z,22.73
2023-01-03T01:19:43.003Z,22.27
2023-01-03T01:22:12.656Z,21.08
2023-01-03T01:24:41.924Z,21.73
2023-01-03T01:27:10.320Z,22.23
2023-01-03T01:29:39.523Z,21.40
2023-01-03T01:32:08.686Z,21.20
2023-01-03T01:34:36.748Z,20.98
2023-01-03T01:37:05.042Z,18.83
2023-01-03T01:39:33.306Z,20.55
2023-01-03T01:42:28.673Z,20.42
2023-01-03T01:45:02.270Z,19.67
2023-01-03T01:48:05.814Z,19.70
2023-01-03T01:50:56.655Z,21.25
2023-01-03T01:53:34.724Z,19.98
2023-01-03T01:56:19.442Z,18.77
2023-01-03T01:58:52.793Z,21.20
2023-01-03T02:01:23.288Z,22.58
2023-01-03T02:04:05.092Z,20.42
2023-01-03T02:09:02.024Z,20.70
2023-01-03T02:11:47.816Z,19.95
2023-01-03T02:14:51.629Z,21.50
2023-01-03T02:17:45.629Z,22.45
2023-01-03T02:20:37.924Z,21.35
2023-01-03T02:23:33.882Z,19.33
2023-01-03T02:26:33.716Z,20.48
2023-01-03T02:29:04.797Z,20.63
2023-01-03T02:31:55.186Z,21.50
2023-01-03T02:35:29.683Z,22.20
2023-01-03T02:38:32.745Z,22.27
2023-01-03T02:41:06.104Z,21.13
2023-01-03T02:44:06.351Z,21.67
2023-01-03T02:46:47.387Z,22.63
2023-01-03T02:49:49.076Z,21.17
2023-01-03T02:52:24.819Z,19.70
2023-01-03T02:55:02.821Z,20.60
2023-01-03T02:57:51.261Z,21.15
2023-01-03T03:00:28.233Z,22.17
2023-01-03T03:03:06.856Z,20.65
2023-01-03T03:05:45.398Z,20.67
2023-01-03T03:08:13.439Z,21.05
2023-01-03T03:11:01.864Z,20.13
2023-01-03T03:14:02.042Z,22.15
2023-01-03T03:16:50.778Z,19.48
2023-01-03T03:19:54.380Z,22.05
2023-01-03T03:22:55.740Z,21.70
2023-01-03T03:25:33.954Z,22.10
2023-01-03T03:28:26.158Z,21.60
2023-01-03T03:31:18.708Z,20.35
2023-01-03T03:34:12.108Z,21.02
2023-01-03T03:36:50.578Z,18.77
2023-01-03T03:39:37.110Z,19.98
2023-01-03T03:42:34.051Z,19.17
2023-01-03T03:45:16.995Z,18.90
2023-01-03T03:48:26.911Z,20.02
2023-01-03T03:51:12.870Z,19.42
2023-01-03T03:53:44.461Z,19.40
2023-01-03T03:56:22.245Z,20.42
2023-01-03T03:58:57.162Z,19.38
2023-01-03T04:01:27.445Z,19.45
2023-01-03T04:04:01.991Z,18.30
2023-01-03T04:06:41.648Z,17.55
2023-01-03T04:09:10.252Z,17.10
2023-01-03T04:11:38.158Z,17.77
2023-01-03T04:14:06.156Z,15.57
2023-01-03T04:16:35.182Z,15.95
2023-01-03T04:19:04.202Z,15.05
2023-01-03T04:21:32.465Z,16.60
2023-01-03T04:24:01.113Z,17.10
2023-01-03T04:26:29.696Z,17.15
2023-01-03T04:28:57.817Z,15.05
2023-01-03T04:31:26.518Z,15.60
2023-01-03T04:33:55.299Z,14.93
2023-01-03T04:36:23.315Z,15.50
2023-01-03T04:38:51.556Z,14.98
2023-01-03T04:41:19.494Z,15.40
2023-01-03T04:44:02.984Z,15.85
2023-01-03T04:46:34.749Z,15.35
2023-01-03T04:51:32.846Z,15.75
2023-01-03T04:54:02.177Z,15.05
2023-01-03T04:56:37.515Z,14.25
2023-01-03T04:59:05.966Z,14.98
2023-01-03T05:01:34.845Z,15.18
2023-01-03T05:04:03.507Z,15.23
2023-01-03T05:06:31.611Z,15.80
2023-01-03T05:08:59.802Z,14.93
2023-01-03T05:11:27.818Z,16.92
2023-01-03T05:13:55.744Z,15.50
2023-01-03T05:16:23.923Z,16.38
2023-01-03T05:18:53.559Z,14.05
2023-01-03T05:21:41.741Z,15.50
2023-01-03T05:24:32.354Z,14.75
2023-01-03T05:27:04.549Z,14.57
2023-01-03T05:29:35.311Z,14.20
2023-01-03T05:32:03.784Z,13.07
2023-01-03T05:34:32.306Z,14.35
2023-01-03T05:37:01.451Z,14.43
2023-01-03T05:39:29.397Z,14.43
2023-01-03T05:42:02.713Z,13.77
2023-01-03T05:44:34.518Z,14.45
2023-01-03T05:47:05.372Z,13.85
2023-01-03T05:49:34.516Z,13.25
2023-01-03T05:52:02.457Z,13.27
2023-01-03T05:54:30.726Z,13.88
2023-01-03T05:56:59.225Z,12.90
2023-01-03T05:59:27.971Z,13.30
2023-01-03T06:01:56.805Z,12.15
2023-01-03T06:04:25.270Z,14.13
2023-01-03T06:06:53.391Z,12.25
2023-01-03T06:09:21.563Z,14.30
2023-01-03T06:11:49.771Z,12.50
2023-01-03T06:14:17.780Z,14.05
2023-01-03T06:17:05.686Z,13.02
2023-01-03T06:19:34.228Z,13.68
2023-01-03T06:22:08.635Z,12.98
2023-01-03T06:24:40.527Z,12.07
2023-01-03T06:27:10.985Z,11.73
2023-01-03T06:29:39.960Z,11.38
2023-01-03T06:32:09.790Z,11.57
2023-01-03T06:34:39.041Z,11.30
2023-01-03T06:37:07.436Z,10.55
2023-01-03T06:39:35.847Z,15.00
2023-01-03T06:42:24.126Z,10.68
2023-01-03T06:45:11.000Z,10.43
2023-01-03T06:47:57.598Z,10.38
2023-01-03T06:50:44.987Z,11.07
2023-01-03T06:53:22.275Z,10.43
2023-01-03T06:55:56.720Z,9.30
2023-01-03T06:58:26.248Z,10.75
2023-01-03T07:00:55.246Z,9.90
2023-01-03T07:03:24.429Z,13.00
2023-01-03T07:05:52.736Z,11.20
2023-01-03T07:08:20.900Z,12.60
2023-01-03T07:10:49.218Z,11.35
2023-01-03T07:13:36.188Z,11.38
2023-01-03T07:16:04.526Z,8.57
2023-01-03T07:18:32.904Z,8.27
2023-01-03T07:21:01.052Z,8.10
2023-01-03T07:23:28.998Z,8.25
2023-01-03T07:25:58.736Z,6.95
2023-01-03T07:28:27.077Z,7.82
2023-01-03T07:31:05.017Z,7.53
2023-01-03T07:33:34.033Z,7.45
2023-01-03T07:36:11.234Z,6.65
2023-01-03T07:38:42.253Z,5.63
2023-01-03T07:41:12.426Z,6.70
2023-01-03T07:43:45.304Z,5.70
2023-01-03T07:46:24.972Z,5.43
2023-01-03T07:48:57.748Z,5.07
2023-01-03T07:51:26.086Z,5.47
2023-01-03T07:53:54.535Z,4.90
2023-01-03T07:56:25.517Z,5.90
2023-01-03T07:58:53.982Z,5.40
2023-01-03T08:01:24.444Z,7.13
2023-01-03T08:03:53.775Z,5.63
2023-01-03T08:06:24.456Z,6.88
2023-01-03T08:09:12.396Z,6.97
2023-01-03T08:11:59.149Z,7.78
2023-01-03T08:14:27.688Z,8.45
2023-01-03T08:16:56.353Z,7.18
2023-01-03T08:19:25.354Z,7.70
2023-01-03T08:21:53.757Z,6.55
2023-01-03T08:24:22.094Z,7.10
2023-01-03T08:26:50.152Z,6.15
2023-01-03T08:29:18.387Z,7.32
2023-01-03T08:31:57.102Z,6.45
2023-01-03T08:34:30.550Z,7.38
2023-01-03T08:37:07.758Z,5.97
2023-01-03T08:39:46.492Z,5.70
2023-01-03T08:42:17.453Z,7.40
2023-01-03T08:44:45.682Z,6.57
2023-01-03T08:47:15.322Z,6.90
2023-01-03T08:49:43.743Z,6.82
2023-01-03T08:52:11.883Z,5.47
2023-01-03T08:54:40.815Z,5.35
2023-01-03T08:57:08.884Z,4.50
2023-01-03T08:59:37.070Z,5.85
2023-01-03T09:02:05.437Z,6.38
2023-01-03T09:04:33.732Z,7.38
2023-01-03T09:07:01.888Z,6.15
2023-01-03T09:09:30.186Z,6.55
2023-01-03T09:11:58.513Z,5.82
2023-01-03T09:14:27.223Z,6.78
2023-01-03T09:16:55.517Z,5.20
2023-01-03T09:19:24.011Z,6.00
2023-01-03T09:21:52.016Z,6.43
2023-01-03T09:24:20.189Z,7.15
2023-01-03T09:26:54.134Z,6.70
2023-01-03T09:29:23.309Z,5.95
2023-01-03T09:31:52.287Z,6.45
2023-01-03T09:34:20.617Z,6.65
2023-01-03T09:36:49.367Z,6.35
2023-01-03T09:39:20.833Z,7.25
2023-01-03T09:42:11.841Z,6.10
2023-01-03T09:44:41.664Z,5.68
2023-01-03T09:47:24.441Z,5.82
2023-01-03T09:50:29.055Z,7.75
2023-01-03T09:53:04.269Z,7.78
2023-01-03T09:56:14.441Z,6.78
2023-01-03T09:59:07.599Z,5.93
2023-01-03T10:02:40.632Z,6.10
2023-01-03T10:05:33.220Z,5.90
2023-01-03T10:08:43.475Z,5.32
2023-01-03T10:11:55.324Z,5.70
2023-01-03T10:15:04.994Z,6.70
2023-01-03T10:18:02.739Z,6.50
2023-01-03T10:21:02.136Z,6.22
2023-01-03T10:23:31.691Z,6.45
2023-01-03T10:26:00.375Z,4.78
2023-01-03T10:28:48.934Z,5.78
2023-01-03T10:31:20.202Z,6.00
2023-01-03T10:33:51.006Z,5.72
2023-01-03T10:36:22.120Z,6.18
2023-01-03T10:39:05.460Z,5.35
2023-01-03T10:41:49.424Z,5.75
2023-01-03T10:44:27.379Z,5.15
2023-01-03T10:46:59.603Z,5.95
2023-01-03T10:49:30.474Z,7.35
2023-01-03T10:52:10.957Z,5.00
2023-01-03T10:54:44.459Z,5.15
2023-01-03T10:57:43.919Z,5.10
2023-01-03T11:00:23.098Z,4.43
2023-01-03T11:02:52.457Z,4.88
2023-01-03T11:05:25.987Z,5.65
2023-01-03T11:08:01.982Z,4.75
2023-01-03T11:11:01.159Z,5.38
2023-01-03T11:13:40.859Z,5.43
2023-01-03T11:16:20.241Z,4.32
2023-01-03T11:19:16.753Z,4.18
2023-01-03T11:22:16.720Z,4.38
2023-01-03T11:25:01.159Z,4.68
2023-01-03T11:28:16.454Z,5.28
2023-01-03T11:31:13.779Z,3.42
2023-01-03T11:33:44.978Z,3.25
2023-01-03T11:36:51.565Z,3.60
2023-01-03T11:39:57.732Z,4.85
2023-01-03T11:42:57.704Z,4.50
2023-01-03T11:45:52.981Z,4.32
2023-01-03T11:49:21.334Z,4.22
2023-01-03T11:52:22.762Z,3.88
2023-01-03T11:55:33.860Z,3.60
2023-01-03T11:58:15.421Z,3.88
2023-01-03T12:01:10.993Z,4.85
2023-01-03T12:04:07.773Z,5.13
2023-01-03T12:07:45.684Z,5.65
2023-01-03T12:10:43.895Z,4.13
2023-01-03T12:13:25.253Z,5.22
2023-01-03T12:16:09.262Z,7.82
2023-01-03T12:19:11.917Z,6.55
2023-01-03T12:21:51.736Z,5.18
2023-01-03T12:24:42.490Z,5.00
2023-01-03T12:27:42.256Z,6.15
2023-01-03T12:30:34.280Z,5.13
2023-01-03T12:36:19.302Z,3.95
2023-01-03T12:39:15.388Z,3.35
2023-01-03T12:41:56.208Z,4.53
2023-01-03T12:44:46.527Z,6.32
2023-01-03T12:47:48.208Z,4.15
2023-01-03T12:50:33.742Z,5.03
2023-01-03T12:53:21.358Z,3.63
2023-01-03T12:56:18.114Z,3.70
2023-01-03T12:59:37.109Z,4.05
2023-01-03T13:02:45.284Z,3.50
2023-01-03T13:05:42.925Z,4.07
2023-01-03T13:09:00.601Z,4.32
2023-01-03T13:11:36.872Z,5.90
2023-01-03T13:14:23.943Z,4.65
2023-01-03T13:17:15.697Z,4.45
2023-01-03T13:20:17.869Z,4.57
2023-01-03T13:26:10.671Z,4.72
2023-01-03T13:28:40.487Z,4.63
2023-01-03T13:31:39.164Z,4.43
2023-01-03T13:34:31.901Z,4.47
2023-01-03T13:37:06.863Z,3.97
2023-01-03T13:39:46.960Z,4.22
2023-01-03T13:42:31.643Z,5.28
2023-01-03T13:45:24.736Z,5.47
2023-01-03T13:47:57.445Z,4.90
2023-01-03T13:50:37.371Z,5.68
2023-01-03T13:53:13.100Z,4.57
2023-01-03T13:55:54.878Z,4.30
2023-01-03T13:58:49.651Z,4.30
2023-01-03T14:01:48.887Z,5.28
2023-01-03T14:05:01.346Z,5.43
2023-01-03T14:08:15.981Z,5.93
2023-01-03T14:11:30.652Z,5.68
2023-01-03T14:14:14.875Z,9.30
2023-01-03T14:16:56.188Z,8.55
2023-01-03T14:19:40.925Z,8.85
2023-01-03T14:22:35.048Z,10.48
2023-01-03T14:25:03.415Z,7.45
2023-01-03T14:27:43.503Z,7.18
2023-01-03T14:30:26.608Z,7.20
2023-01-03T14:32:54.780Z,6.30
2023-01-03T14:36:12.281Z,7.18
2023-01-03T14:38:56.510Z,7.72
2023-01-03T14:41:37.913Z,7.22
2023-01-03T14:44:12.287Z,9.23
2023-01-03T14:46:49.485Z,8.50
2023-01-03T14:49:34.241Z,9.43
2023-01-03T14:52:25.556Z,10.82
2023-01-03T14:55:03.465Z,16.80
2023-01-03T14:57:39.818Z,20.10
2023-01-03T15:00:19.578Z,14.38
2023-01-03T15:02:49.105Z,16.83
2023-01-03T15:05:29.362Z,13.75
2023-01-03T15:08:16.146Z,14.45
2023-01-03T15:11:00.127Z,14.20
2023-01-03T15:13:43.762Z,15.70
2023-01-03T15:16:27.994Z,16.30
2023-01-03T15:19:28.395Z,13.93
2023-01-03T15:22:09.047Z,10.77
2023-01-03T15:24:44.488Z,12.48
2023-01-03T15:27:50.906Z,11.23
2023-01-03T15:30:27.176Z,13.13
2023-01-03T15:33:20.005Z,12.45
2023-01-03T15:35:51.030Z,12.35
2023-01-03T15:38:32.246Z,13.43
2023-01-03T15:41:04.958Z,13.70
2023-01-03T15:43:39.327Z,13.13
2023-01-03T15:46:20.314Z,12.90
2023-01-03T15:48:57.263Z,12.88
2023-01-03T15:51:25.963Z,14.57
2023-01-03T15:53:54.053Z,14.18
2023-01-03T15:56:34.631Z,14.57
2023-01-03T15:59:09.717Z,14.15
2023-01-03T16:01:38.274Z,12.77
2023-01-03T16:04:06.648Z,12.05
2023-01-03T16:06:35.969Z,12.30
2023-01-03T16:09:04.714Z,13.35
2023-01-03T16:11:34.723Z,14.73
2023-01-03T16:14:08.948Z,13.77
2023-01-03T16:16:42.096Z,14.00
2023-01-03T16:19:27.334Z,15.05
2023-01-03T16:22:34.002Z,15.27
2023-01-03T16:24:52.690Z,14.00
2023-01-03T16:27:23.570Z,13.73
2023-01-03T16:29:53.005Z,20.13
2023-01-03T16:32:30.629Z,17.90
2023-01-03T16:35:02.610Z,13.00
2023-01-03T16:37:31.832Z,12.40
2023-01-03T16:40:00.214Z,11.80
2023-01-03T16:42:28.705Z,12.10
2023-01-03T16:44:58.192Z,11.95
2023-01-03T16:47:32.472Z,12.73
2023-01-03T16:50:10.087Z,12.32
2023-01-03T16:52:41.507Z,10.98
2023-01-03T16:55:39.244Z,11.32
2023-01-03T16:58:12.887Z,14.55
2023-01-03T17:00:41.591Z,13.57
2023-01-03T17:03:10.704Z,11.25
2023-01-03T17:05:39.517Z,10.85
2023-01-03T17:08:17.840Z,10.60
2023-01-03T17:10:49.080Z,13.88
2023-01-03T17:13:39.834Z,16.70
2023-01-03T17:16:19.787Z,17.75
2023-01-03T17:18:50.032Z,17.50
2023-01-03T17:21:32.667Z,15.98
2023-01-03T17:24:38.710Z,15.48
2023-01-03T17:27:34.062Z,13.18
2023-01-03T17:30:07.267Z,9.80
2023-01-03T17:32:35.764Z,11.27
2023-01-03T17:35:05.181Z,11.43
2023-01-03T17:37:45.724Z,11.05
2023-01-03T17:40:33.273Z,12.90
2023-01-03T17:43:03.608Z,14.05
2023-01-03T17:45:51.543Z,14.00
2023-01-03T17:48:38.477Z,15.32
2023-01-03T17:51:06.669Z,14.63
2023-01-03T17:53:35.287Z,12.80
2023-01-03T17:56:04.714Z,13.38
2023-01-03T17:58:37.221Z,14.90
2023-01-03T18:01:08.842Z,14.50
2023-01-03T18:03:38.597Z,13.40
2023-01-03T18:06:20.617Z,13.52
2023-01-03T18:08:49.474Z,11.55
2023-01-03T18:11:24.090Z,12.45
2023-01-03T18:13:54.395Z,12.00
2023-01-03T18:16:23.639Z,12.35
2023-01-03T18:18:52.294Z,12.25
2023-01-03T18:21:25.531Z,12.45
2023-01-03T18:24:28.127Z,12.13
2023-01-03T18:26:57.689Z,12.73
2023-01-03T18:29:26.283Z,14.38
2023-01-03T18:32:29.596Z,15.30
2023-01-03T18:34:59.107Z,13.75
2023-01-03T18:37:37.691Z,16.67
2023-01-03T18:40:08.877Z,16.25
2023-01-03T18:42:55.937Z,16.13
2023-01-03T18:45:24.764Z,16.50
2023-01-03T18:47:53.178Z,14.32
2023-01-03T18:50:22.190Z,15.70
2023-01-03T18:52:52.737Z,15.57
2023-01-03T18:55:34.358Z,16.13
2023-01-03T18:58:38.163Z,15.00
2023-01-03T19:01:07.317Z,17.20
2023-01-03T19:03:39.427Z,17.58
2023-01-03T19:06:21.185Z,16.08
2023-01-03T19:08:50.100Z,16.75
2023-01-03T19:11:36.241Z,15.60
2023-01-03T19:14:05.001Z,19.88
2023-01-03T19:16:37.960Z,21.50
2023-01-03T19:19:07.848Z,19.95
2023-01-03T19:21:40.055Z,21.65
2023-01-03T19:24:24.197Z,27.70
2023-01-03T19:27:00.919Z,27.92
2023-01-03T19:29:37.207Z,22.58
2023-01-03T19:32:20.452Z,17.10
2023-01-03T19:34:49.223Z,14.57
2023-01-03T19:37:18.165Z,17.38
2023-01-03T19:39:46.631Z,20.88
2023-01-03T19:42:42.635Z,18.23
2023-01-03T19:45:29.041Z,18.98
2023-01-03T19:48:00.703Z,19.55
2023-01-03T19:53:02.582Z,16.02
2023-01-03T19:55:37.727Z,14.90
2023-01-03T19:58:24.354Z,15.15
2023-01-03T20:00:53.664Z,14.15
2023-01-03T20:03:31.468Z,13.00
2023-01-03T20:06:01.145Z,15.23
2023-01-03T20:08:29.530Z,16.77
2023-01-03T20:10:58.403Z,15.70
2023-01-03T20:13:28.172Z,15.73
2023-01-03T20:16:00.516Z,16.75
2023-01-03T20:18:39.358Z,16.13
2023-01-03T20:21:22.843Z,15.68
2023-01-03T20:24:06.041Z,13.93
2023-01-03T20:26:36.549Z,19.92
2023-01-03T20:29:05.620Z,19.25
2023-01-03T20:31:34.075Z,19.20
2023-01-03T20:34:06.720Z,18.25
2023-01-03T20:36:43.695Z,18.73
2023-01-03T20:39:28.310Z,16.75
2023-01-03T20:42:03.105Z,17.80
2023-01-03T20:44:31.967Z,17.63
2023-01-03T20:47:00.926Z,17.73
2023-01-03T20:49:32.169Z,18.98
2023-01-03T20:52:01.530Z,16.38
2023-01-03T20:54:29.670Z,18.13
2023-01-03T20:56:58.996Z,16.27
2023-01-03T20:59:30.208Z,19.92
2023-01-03T21:01:59.195Z,15.95
2023-01-03T21:04:27.916Z,19.02
2023-01-03T21:06:56.331Z,22.23
2023-01-03T21:09:24.554Z,34.28
2023-01-03T21:11:53.067Z,32.03
2023-01-03T21:14:22.105Z,21.83
2023-01-03T21:16:50.841Z,15.43
2023-01-03T21:19:23.714Z,16.60
2023-01-03T21:21:56.063Z,13.85
2023-01-03T21:24:25.647Z,14.25
2023-01-03T21:26:54.588Z,14.98
2023-01-03T21:29:22.837Z,16.10
2023-01-03T21:31:51.680Z,14.82
2023-01-03T21:34:22.125Z,15.60
2023-01-03T21:36:50.604Z,13.70
2023-01-03T21:39:19.315Z,14.52
2023-01-03T21:42:06.852Z,15.40
2023-01-03T21:44:35.522Z,17.63
2023-01-03T21:47:03.902Z,20.30
2023-01-03T21:49:32.469Z,18.15
2023-01-03T21:52:00.990Z,17.75
2023-01-03T21:54:29.534Z,19.05
2023-01-03T21:56:57.923Z,16.52
2023-01-03T21:59:26.364Z,14.40
2023-01-03T22:02:13.655Z,12.15
2023-01-03T22:04:42.090Z,12.40
2023-01-03T22:07:10.903Z,11.38
2023-01-03T22:09:58.251Z,12.90
2023-01-03T22:12:26.475Z,13.07
2023-01-03T22:14:54.768Z,14.00
2023-01-03T22:17:22.987Z,12.57
2023-01-03T22:19:51.533Z,12.90
2023-01-03T22:22:19.652Z,11.35
2023-01-03T22:24:48.226Z,10.98
2023-01-03T22:27:17.423Z,11.93
2023-01-03T22:29:45.712Z,11.85
2023-01-03T22:32:14.246Z,11.02
2023-01-03T22:34:42.660Z,10.80
2023-01-03T22:37:10.778Z,10.88
2023-01-03T22:39:39.094Z,11.55
2023-01-03T22:42:07.592Z,11.45
2023-01-03T22:44:36.248Z,11.63
2023-01-03T22:47:05.685Z,11.90
2023-01-03T22:49:34.055Z,11.82
2023-01-03T22:52:02.599Z,10.77
2023-01-03T22:54:31.152Z,11.57
2023-01-03T22:56:59.332Z,10.68
2023-01-03T22:59:27.868Z,12.07
2023-01-03T23:01:56.845Z,11.48
2023-01-03T23:04:26.836Z,11.80
2023-01-03T23:06:55.927Z,11.05
2023-01-03T23:09:24.999Z,12.07
2023-01-03T23:12:11.642Z,11.55
2023-01-03T23:14:39.847Z,11.15
2023-01-03T23:17:43.505Z,12.48
2023-01-03T23:20:12.108Z,11.48
2023-01-03T23:22:40.359Z,11.98
2023-01-03T23:25:08.840Z,12.80
2023-01-03T23:27:37.466Z,12.68
2023-01-03T23:30:06.447Z,12.27
2023-01-03T23:32:35.331Z,12.82
2023-01-03T23:35:03.510Z,12.57
2023-01-03T23:37:31.868Z,12.50
2023-01-03T23:40:00.188Z,13.43
2023-01-03T23:42:30.290Z,13.00
2023-01-03T23:44:58.808Z,11.95
2023-01-03T23:47:27.246Z,12.90
2023-01-03T23:49:55.627Z,11.25
2023-01-03T23:52:23.941Z,12.63
2023-01-03T23:54:57.768Z,11.48
2023-01-03T23:57:28.981Z,13.55
2023-01-03T23:59:57.191Z,11.88
